Dades meteomassalio
 
Diari Summary for Setembre 20, 2017 Units:  Metric    English   Both
« Previous Day
Next Day »
Diari Semanal Mensual Anual Personalitzat
  Actual: Maxima: Minima: Mijana:
Temperatura: 24.4 °C 24.4 °C 5.0 °C 14.2 °C
Rosada: -2.2 °C 5.7 °C -3.5 °C 1.3 °C
Humitat: 17 % 73 % 16 % 46 %
Velocitat del vent: 0.0 km/h 31.5 km/h 0.0 km/h 9.6 km/h
Racha vent: 0.0 km/h 31.5 km/h - -
Vent:Calm - - SSW
Pressio: 1020.5 hPa 1024.3 hPa 1020.5 hPa -
Pluja: 0.0 mm      
Historical Graphs
 
 
Tabular Data for Setembre 20, 2017
Time Temperature Dew Point Pressure Wind Wind Speed Wind Gust Humidity Rainfall Rate (Hourly) solar Conditions
00:02 16.1 °C 5.4 °C 1024.3 hPa SSW 20.4 km/h 20.4 km/h 49 % 0.0 mm 0.0 W/m2 CLR
00:07 16.1 °C 5.4 °C 1024.3 hPa SSW 18.5 km/h 18.5 km/h 49 % 0.0 mm 0.0 W/m2 CLR
00:12 16.1 °C 5.7 °C 1024.3 hPa SSW 18.5 km/h 18.5 km/h 50 % 0.0 mm 0.0 W/m2 CLR
00:17 16.1 °C 5.7 °C 1024.3 hPa SSW 20.9 km/h 20.9 km/h 50 % 0.0 mm 0.0 W/m2 CLR
00:22 16.1 °C 5.7 °C 1024.3 hPa SSW 18.5 km/h 18.5 km/h 50 % 0.0 mm 0.0 W/m2 CLR
00:27 16.1 °C 5.7 °C 1024.3 hPa SSW 20.4 km/h 20.4 km/h 50 % 0.0 mm 0.0 W/m2 CLR
00:32 16.1 °C 5.7 °C 1024.3 hPa South 25.9 km/h 25.9 km/h 50 % 0.0 mm 0.0 W/m2 CLR
00:37 16.1 °C 5.7 °C 1024.3 hPa South 25.7 km/h 25.7 km/h 50 % 0.0 mm 0.0 W/m2 CLR
00:42 16.1 °C 5.7 °C 1024.3 hPa SSW 25.9 km/h 25.9 km/h 50 % 0.0 mm 0.0 W/m2 CLR
00:47 16.1 °C 5.7 °C 1024.3 hPa South 25.9 km/h 25.9 km/h 50 % 0.0 mm 0.0 W/m2 CLR
00:52 16.1 °C 5.7 °C 1023.9 hPa South 20.9 km/h 20.9 km/h 50 % 0.0 mm 0.0 W/m2 CLR
00:57 16.1 °C 5.7 °C 1023.9 hPa SSW 24.1 km/h 24.1 km/h 50 % 0.0 mm 0.0 W/m2 CLR
01:02 16.1 °C 5.7 °C 1024.3 hPa SSW 27.8 km/h 27.8 km/h 50 % 0.0 mm 0.0 W/m2 CLR
01:07 16.1 °C 5.7 °C 1023.9 hPa SSW 25.9 km/h 25.9 km/h 50 % 0.0 mm 0.0 W/m2 CLR
01:12 16.1 °C 5.7 °C 1023.9 hPa SSW 24.1 km/h 24.1 km/h 50 % 0.0 mm 0.0 W/m2 CLR
01:17 15.6 °C 5.2 °C 1023.9 hPa SSW 18.5 km/h 18.5 km/h 50 % 0.0 mm 0.0 W/m2 CLR
01:22 15.6 °C 5.2 °C 1023.9 hPa SSW 20.4 km/h 20.4 km/h 50 % 0.0 mm 0.0 W/m2 CLR
01:27 15.6 °C 5.2 °C 1023.9 hPa South 24.1 km/h 24.1 km/h 50 % 0.0 mm 0.0 W/m2 CLR
01:32 15.0 °C 4.7 °C 1023.9 hPa SSW 20.4 km/h 20.4 km/h 50 % 0.0 mm 0.0 W/m2 CLR
01:37 15.0 °C 4.4 °C 1023.9 hPa SSW 27.4 km/h 27.4 km/h 49 % 0.0 mm 0.0 W/m2 CLR
01:39 15.0 °C 4.4 °C 1023.9 hPa SSW 27.4 km/h 27.4 km/h 49 % 0.0 mm 0.0 W/m2 CLR
01:44 15.0 °C 4.1 °C 1023.9 hPa SSW 24.1 km/h 24.1 km/h 48 % 0.0 mm 0.0 W/m2 CLR
01:49 15.6 °C 4.6 °C 1023.9 hPa SSW 27.8 km/h 27.8 km/h 48 % 0.0 mm 0.0 W/m2 CLR
01:54 15.6 °C 4.3 °C 1023.9 hPa SSW 31.5 km/h 31.5 km/h 47 % 0.0 mm 0.0 W/m2 CLR
01:59 15.6 °C 4.3 °C 1023.9 hPa South 24.1 km/h 24.1 km/h 47 % 0.0 mm 0.0 W/m2 CLR
02:04 15.6 °C 4.6 °C 1023.9 hPa SSW 25.9 km/h 25.9 km/h 48 % 0.0 mm 0.0 W/m2 CLR
02:09 15.6 °C 4.6 °C 1023.9 hPa South 31.5 km/h 31.5 km/h 48 % 0.0 mm 0.0 W/m2 CLR
02:14 15.0 °C 4.4 °C 1023.9 hPa South 20.4 km/h 20.4 km/h 49 % 0.0 mm 0.0 W/m2 CLR
02:19 15.0 °C 4.7 °C 1023.9 hPa SSE 9.3 km/h 9.3 km/h 50 % 0.0 mm 0.0 W/m2 CLR
02:24 15.0 °C 4.9 °C 1023.9 hPa South 13.0 km/h 13.0 km/h 51 % 0.0 mm 0.0 W/m2 CLR
02:29 14.4 °C 5.0 °C 1023.9 hPa SSE 11.1 km/h 11.1 km/h 53 % 0.0 mm 0.0 W/m2 CLR
02:34 13.9 °C 4.7 °C 1023.9 hPa South 14.8 km/h 14.8 km/h 54 % 0.0 mm 0.0 W/m2 CLR
02:39 13.9 °C 4.7 °C 1023.9 hPa South 14.8 km/h 14.8 km/h 54 % 0.0 mm 0.0 W/m2 CLR
02:44 13.3 °C 3.9 °C 1023.9 hPa SSW 16.7 km/h 16.7 km/h 53 % 0.0 mm 0.0 W/m2 CLR
02:49 12.8 °C 3.2 °C 1023.9 hPa SSW 18.5 km/h 18.5 km/h 52 % 0.0 mm 0.0 W/m2 CLR
02:54 12.2 °C 2.4 °C 1023.9 hPa South 18.5 km/h 18.5 km/h 51 % 0.0 mm 0.0 W/m2 CLR
02:59 11.7 °C 1.8 °C 1023.9 hPa SSW 16.7 km/h 16.7 km/h 51 % 0.0 mm 0.0 W/m2 CLR
03:04 11.1 °C 1.1 °C 1023.9 hPa SSW 18.5 km/h 18.5 km/h 50 % 0.0 mm 0.0 W/m2 CLR
03:09 11.1 °C 1.1 °C 1023.9 hPa SSW 14.8 km/h 14.8 km/h 50 % 0.0 mm 0.0 W/m2 CLR
03:14 10.6 °C 0.6 °C 1023.9 hPa SW 14.8 km/h 14.8 km/h 50 % 0.0 mm 0.0 W/m2 CLR
03:19 10.6 °C 0.3 °C 1023.9 hPa SSW 18.5 km/h 18.5 km/h 49 % 0.0 mm 0.0 W/m2 CLR
03:24 10.6 °C 0.0 °C 1023.9 hPa SW 19.3 km/h 19.3 km/h 48 % 0.0 mm 0.0 W/m2 CLR
03:29 10.0 °C -0.5 °C 1023.9 hPa SSW 14.8 km/h 14.8 km/h 48 % 0.0 mm 0.0 W/m2 CLR
03:34 10.0 °C -0.5 °C 1023.9 hPa SSW 13.0 km/h 13.0 km/h 48 % 0.0 mm 0.0 W/m2 CLR
03:39 9.4 °C -1.1 °C 1023.9 hPa SSW 6.4 km/h 6.4 km/h 48 % 0.0 mm 0.0 W/m2 CLR
03:44 9.4 °C -1.3 °C 1023.9 hPa South 3.7 km/h 3.7 km/h 47 % 0.0 mm 0.0 W/m2 CLR
03:49 8.9 °C -1.8 °C 1023.9 hPa SW 1.9 km/h   47 % 0.0 mm 0.0 W/m2 CLR
03:54 8.9 °C -2.1 °C 1023.9 hPa Calm     46 % 0.0 mm 0.0 W/m2 CLR
03:59 8.3 °C -2.3 °C 1023.9 hPa Calm     47 % 0.0 mm 0.0 W/m2 CLR
04:04 8.3 °C -2.3 °C 1023.9 hPa Calm     47 % 0.0 mm 0.0 W/m2 CLR
04:09 8.3 °C -1.8 °C 1023.9 hPa Calm     49 % 0.0 mm 0.0 W/m2 CLR
04:14 7.8 °C -1.5 °C 1023.9 hPa Calm     52 % 0.0 mm 0.0 W/m2 CLR
04:19 7.8 °C -1.2 °C 1024.3 hPa Calm     53 % 0.0 mm 0.0 W/m2 CLR
04:24 7.8 °C -0.9 °C 1024.3 hPa Calm     54 % 0.0 mm 0.0 W/m2 CLR
04:29 7.8 °C -0.7 °C 1024.3 hPa Calm     55 % 0.0 mm 0.0 W/m2 CLR
04:34 7.2 °C -1.2 °C 1024.3 hPa Calm     55 % 0.0 mm 0.0 W/m2 CLR
04:39 7.2 °C -1.2 °C 1024.3 hPa Calm     55 % 0.0 mm 0.0 W/m2 CLR
04:44 7.2 °C -1.0 °C 1023.9 hPa SSE 5.6 km/h 5.6 km/h 56 % 0.0 mm 0.0 W/m2 CLR
04:49 7.2 °C -1.2 °C 1024.3 hPa South 5.6 km/h 5.6 km/h 55 % 0.0 mm 0.0 W/m2 CLR
04:54 7.2 °C -1.0 °C 1024.3 hPa SSE 11.1 km/h 11.1 km/h 56 % 0.0 mm 0.0 W/m2 CLR
04:59 6.7 °C -1.5 °C 1023.9 hPa SSE 11.1 km/h 11.1 km/h 56 % 0.0 mm 0.0 W/m2 CLR
05:04 6.7 °C -1.3 °C 1023.9 hPa South 11.1 km/h 11.1 km/h 57 % 0.0 mm 0.0 W/m2 CLR
05:09 6.7 °C -1.0 °C 1023.9 hPa SSE 11.1 km/h 11.1 km/h 58 % 0.0 mm 0.0 W/m2 CLR
05:15 6.7 °C -0.8 °C 1023.9 hPa SSE 12.9 km/h 12.9 km/h 59 % 0.0 mm 0.0 W/m2 CLR
05:19 6.1 °C -1.3 °C 1023.9 hPa South 13.0 km/h 13.0 km/h 59 % 0.0 mm 0.0 W/m2 CLR
05:20 6.1 °C -1.3 °C 1023.9 hPa SSE 9.3 km/h 9.3 km/h 59 % 0.0 mm 0.0 W/m2 CLR
05:22 6.1 °C -1.3 °C 1024.3 hPa SE 11.1 km/h 11.1 km/h 59 % 0.0 mm 0.0 W/m2 CLR
05:24 6.1 °C -1.3 °C 1023.9 hPa SSE 9.3 km/h 9.3 km/h 59 % 0.0 mm 0.0 W/m2 CLR
05:25 6.1 °C -1.3 °C 1023.9 hPa SSE 9.3 km/h 9.3 km/h 59 % 0.0 mm 0.0 W/m2 CLR
05:27 6.1 °C -1.1 °C 1023.9 hPa SSE 9.3 km/h 9.3 km/h 60 % 0.0 mm 0.0 W/m2 CLR
05:32 6.1 °C -1.1 °C 1023.9 hPa SSE 8.0 km/h 8.0 km/h 60 % 0.0 mm 0.0 W/m2 CLR
05:37 6.1 °C -0.8 °C 1023.9 hPa South 7.4 km/h 7.4 km/h 61 % 0.0 mm 0.0 W/m2 CLR
05:42 6.1 °C -0.8 °C 1023.9 hPa South 5.6 km/h 5.6 km/h 61 % 0.0 mm 0.0 W/m2 CLR
05:47 6.1 °C -1.1 °C 1023.9 hPa South 5.6 km/h 5.6 km/h 60 % 0.0 mm 0.0 W/m2 CLR
05:57 6.7 °C -0.8 °C 1023.9 hPa SSE 9.3 km/h 9.3 km/h 59 % 0.0 mm 0.0 W/m2 CLR
06:02 6.7 °C -0.3 °C 1023.9 hPa SSE 14.8 km/h 14.8 km/h 61 % 0.0 mm 0.0 W/m2 CLR
06:07 6.7 °C -0.1 °C 1023.9 hPa SSW 9.7 km/h 9.7 km/h 62 % 0.0 mm 0.0 W/m2 CLR
06:12 6.7 °C -0.1 °C 1023.9 hPa South 18.5 km/h 18.5 km/h 62 % 0.0 mm 0.0 W/m2 CLR
06:17 7.2 °C -0.1 °C 1023.9 hPa South 11.1 km/h 11.1 km/h 60 % 0.0 mm 0.0 W/m2 CLR
06:22 6.7 °C -1.0 °C 1023.9 hPa South 11.1 km/h 11.1 km/h 58 % 0.0 mm 0.0 W/m2 CLR
06:27 6.7 °C -1.3 °C 1023.9 hPa SSW 9.7 km/h 9.7 km/h 57 % 0.0 mm 0.0 W/m2 CLR
06:32 6.7 °C -1.3 °C 1023.9 hPa South 9.7 km/h 9.7 km/h 57 % 0.0 mm 0.0 W/m2 CLR
06:37 6.1 °C -2.0 °C 1023.9 hPa SSW 8.0 km/h 8.0 km/h 56 % 0.0 mm 0.0 W/m2 CLR
06:42 6.1 °C -2.0 °C 1023.6 hPa South 9.3 km/h 9.3 km/h 56 % 0.0 mm 0.0 W/m2 CLR
06:47 6.1 °C -2.0 °C 1023.9 hPa South 7.4 km/h 7.4 km/h 56 % 0.0 mm 0.0 W/m2 CLR
06:52 5.6 °C -2.3 °C 1023.9 hPa Calm     57 % 0.0 mm 0.0 W/m2 CLR
06:57 5.6 °C -2.1 °C 1023.9 hPa Calm     58 % 0.0 mm 0.0 W/m2 CLR
07:02 5.6 °C -1.6 °C 1023.9 hPa Calm     60 % 0.0 mm 0.0 W/m2 CLR
07:07 5.6 °C -1.4 °C 1023.9 hPa Calm     61 % 0.0 mm 0.0 W/m2 CLR
07:12 5.6 °C -1.2 °C 1023.9 hPa Calm     62 % 0.0 mm 0.0 W/m2 CLR
07:17 5.6 °C -0.5 °C 1023.9 hPa Calm     65 % 0.0 mm 0.0 W/m2 CLR
07:22 5.0 °C -0.8 °C 1023.9 hPa Calm     66 % 0.0 mm 0.0 W/m2 CLR
07:27 5.0 °C -0.8 °C 1023.9 hPa Calm     66 % 0.0 mm 0.0 W/m2 CLR
07:32 5.0 °C -0.6 °C 1023.9 hPa Calm     67 % 0.0 mm 0.0 W/m2 CLR
07:37 5.6 °C -0.1 °C 1024.3 hPa Calm     67 % 0.0 mm 0.0 W/m2 OVC
07:42 5.0 °C -0.4 °C 1023.9 hPa Calm     68 % 0.0 mm 0.0 W/m2 OVC
07:47 5.0 °C 0.0 °C 1024.3 hPa Calm     70 % 0.0 mm 7.0 W/m2 BKN
07:52 5.0 °C 0.4 °C 1024.3 hPa Calm     72 % 0.0 mm 11.0 W/m2 BKN
07:57 5.0 °C 0.4 °C 1024.3 hPa Calm     72 % 0.0 mm 14.0 W/m2 BKN
08:03 5.0 °C 0.4 °C 1024.3 hPa Calm     72 % 0.0 mm 18.0 W/m2 BKN
08:08 5.0 °C 0.4 °C 1023.9 hPa Calm     72 % 0.0 mm 21.0 W/m2 BKN
08:13 5.6 °C 1.1 °C 1023.9 hPa Calm     73 % 0.0 mm 26.0 W/m2 BKN
08:18 5.6 °C 1.1 °C 1023.9 hPa Calm     73 % 0.0 mm 30.0 W/m2 BKN
08:23 5.6 °C 1.1 °C 1023.9 hPa Calm     73 % 0.0 mm 32.0 W/m2 BKN
08:28 6.1 °C 1.4 °C 1023.9 hPa Calm     72 % 0.0 mm 35.0 W/m2 BKN
08:33 6.7 °C 2.2 °C 1023.9 hPa Calm     73 % 0.0 mm 56.0 W/m2 SCT
08:38 7.2 °C 2.5 °C 1023.9 hPa Calm     72 % 0.0 mm 84.0 W/m2 FEW
08:43 7.2 °C 2.3 °C 1023.9 hPa Calm     71 % 0.0 mm 95.0 W/m2 CLR
08:48 7.8 °C 2.7 °C 1023.9 hPa SSE 1.9 km/h 1.9 km/h 70 % 0.0 mm 111.0 W/m2 CLR
08:53 8.3 °C 3.0 °C 1023.9 hPa South 3.7 km/h 3.7 km/h 69 % 0.0 mm 109.0 W/m2 CLR
08:58 8.9 °C 3.5 °C 1023.9 hPa Calm     69 % 0.0 mm 144.0 W/m2 CLR
09:03 8.9 °C 3.3 °C 1023.9 hPa Calm     68 % 0.0 mm 162.0 W/m2 CLR
09:08 8.9 °C 2.7 °C 1023.9 hPa Calm     65 % 0.0 mm 183.0 W/m2 CLR
09:13 9.4 °C 3.2 °C 1023.9 hPa Calm     65 % 0.0 mm 197.0 W/m2 CLR
09:14 9.4 °C 3.2 °C 1023.9 hPa Calm     65 % 0.0 mm 202.0 W/m2 CLR
09:19 9.4 °C 2.7 °C 1024.3 hPa Calm     63 % 0.0 mm 218.0 W/m2 CLR
09:24 10.0 °C 3.1 °C 1024.3 hPa Calm     62 % 0.0 mm 239.0 W/m2 CLR
09:29 11.1 °C 3.9 °C 1024.3 hPa Calm     61 % 0.0 mm 253.0 W/m2 CLR
09:34 11.1 °C 3.4 °C 1024.3 hPa Calm     59 % 0.0 mm 262.0 W/m2 CLR
09:39 11.7 °C 3.7 °C 1024.3 hPa Calm     58 % 0.0 mm 274.0 W/m2 CLR
09:44 12.2 °C 3.9 °C 1024.3 hPa Calm     57 % 0.0 mm 294.0 W/m2 CLR
09:49 12.8 °C 4.4 °C 1024.3 hPa Calm     57 % 0.0 mm 306.0 W/m2 CLR
09:54 13.3 °C 5.0 °C 1024.3 hPa Calm     57 % 0.0 mm 322.0 W/m2 CLR
09:59 13.3 °C 4.2 °C 1024.3 hPa WSW 1.9 km/h 1.9 km/h 54 % 0.0 mm 338.0 W/m2 CLR
10:04 13.9 °C 4.4 °C 1024.3 hPa SW 1.9 km/h 1.9 km/h 53 % 0.0 mm 353.0 W/m2 CLR
10:09 13.9 °C 3.9 °C 1023.9 hPa West 13.0 km/h 13.0 km/h 51 % 0.0 mm 371.0 W/m2 CLR
10:14 13.9 °C 3.9 °C 1023.9 hPa SW 7.4 km/h 7.4 km/h 51 % 0.0 mm 383.0 W/m2 CLR
10:19 14.4 °C 4.4 °C 1023.9 hPa WSW 5.6 km/h 5.6 km/h 51 % 0.0 mm 399.0 W/m2 CLR
10:24 15.0 °C 4.4 °C 1023.9 hPa WSW 6.4 km/h 6.4 km/h 49 % 0.0 mm 415.0 W/m2 CLR
10:29 15.0 °C 4.4 °C 1023.9 hPa WSW 3.7 km/h 3.7 km/h 49 % 0.0 mm 429.0 W/m2 CLR
10:34 15.6 °C 4.9 °C 1023.9 hPa West 5.6 km/h 5.6 km/h 49 % 0.0 mm 439.0 W/m2 CLR
10:39 15.6 °C 4.6 °C 1023.9 hPa WSW 7.4 km/h 7.4 km/h 48 % 0.0 mm 454.0 W/m2 CLR
10:44 16.1 °C 5.1 °C 1023.9 hPa WSW 5.6 km/h 5.6 km/h 48 % 0.0 mm 473.0 W/m2 CLR
10:49 16.1 °C 4.5 °C 1023.9 hPa WSW 5.6 km/h 5.6 km/h 46 % 0.0 mm 487.0 W/m2 CLR
10:54 16.1 °C 4.5 °C 1023.9 hPa South 5.6 km/h 5.6 km/h 46 % 0.0 mm 499.0 W/m2 CLR
10:59 16.1 °C 3.8 °C 1023.9 hPa South 11.1 km/h 11.1 km/h 44 % 0.0 mm 517.0 W/m2 CLR
11:04 16.7 °C 5.0 °C 1023.9 hPa SSW 13.0 km/h 13.0 km/h 46 % 0.0 mm 529.0 W/m2 CLR
11:09 16.7 °C 4.7 °C 1023.9 hPa WSW 9.3 km/h 9.3 km/h 45 % 0.0 mm 547.0 W/m2 CLR
11:11 16.7 °C 4.7 °C 1023.9 hPa West 11.1 km/h 11.1 km/h 45 % 0.0 mm 548.0 W/m2 CLR
11:16 17.2 °C 4.5 °C 1023.9 hPa SW 11.1 km/h 11.1 km/h 43 % 0.0 mm 557.0 W/m2 CLR
11:21 17.2 °C 3.8 °C 1023.9 hPa South 9.7 km/h 9.7 km/h 41 % 0.0 mm 570.0 W/m2 CLR
11:26 17.8 °C 4.3 °C 1023.9 hPa South 7.4 km/h 7.4 km/h 41 % 0.0 mm 589.0 W/m2 CLR
11:31 18.3 °C 4.5 °C 1023.9 hPa SSW 11.1 km/h 11.1 km/h 40 % 0.0 mm 598.0 W/m2 CLR
11:36 18.3 °C 4.5 °C 1023.9 hPa SW 9.7 km/h 9.7 km/h 40 % 0.0 mm 610.0 W/m2 CLR
11:41 18.3 °C 4.1 °C 1023.9 hPa WSW 5.6 km/h 5.6 km/h 39 % 0.0 mm 622.0 W/m2 CLR
11:46 18.9 °C 5.0 °C 1023.9 hPa South 14.8 km/h 14.8 km/h 40 % 0.0 mm 629.0 W/m2 CLR
11:51 18.9 °C 3.9 °C 1023.9 hPa SSE 14.8 km/h 14.8 km/h 37 % 0.0 mm 636.0 W/m2 CLR
11:56 19.4 °C 4.7 °C 1023.9 hPa WSW 9.3 km/h 9.3 km/h 38 % 0.0 mm 643.0 W/m2 CLR
12:01 19.4 °C 3.6 °C 1023.6 hPa South 5.6 km/h 5.6 km/h 35 % 0.0 mm 649.0 W/m2 CLR
12:06 20.0 °C 3.2 °C 1023.6 hPa SSE 11.1 km/h 11.1 km/h 33 % 0.0 mm 666.0 W/m2 CLR
12:11 20.0 °C 3.7 °C 1023.6 hPa WSW 13.0 km/h 13.0 km/h 34 % 0.0 mm 677.0 W/m2 CLR
12:16 20.0 °C 1.9 °C 1023.6 hPa SSW 20.4 km/h 20.4 km/h 30 % 0.0 mm 687.0 W/m2 CLR
12:21 20.0 °C 3.2 °C 1023.6 hPa SW 24.1 km/h 24.1 km/h 33 % 0.0 mm 693.0 W/m2 CLR
12:26 20.6 °C 3.7 °C 1023.2 hPa SW 11.1 km/h 11.1 km/h 33 % 0.0 mm 696.0 W/m2 CLR
12:31 20.6 °C 1.9 °C 1023.2 hPa WSW 16.7 km/h 16.7 km/h 29 % 0.0 mm 703.0 W/m2 CLR
12:36 20.6 °C 0.9 °C 1023.2 hPa WSW 22.2 km/h 22.2 km/h 27 % 0.0 mm 717.0 W/m2 CLR
12:41 21.1 °C 1.4 °C 1023.2 hPa SW 9.7 km/h 9.7 km/h 27 % 0.0 mm 722.0 W/m2 CLR
12:46 21.1 °C 1.4 °C 1023.2 hPa West 22.2 km/h 22.2 km/h 27 % 0.0 mm 728.0 W/m2 CLR
12:51 21.1 °C 0.8 °C 1023.2 hPa SW 24.1 km/h 24.1 km/h 26 % 0.0 mm 735.0 W/m2 CLR
12:56 21.7 °C 1.8 °C 1023.2 hPa SW 20.9 km/h 20.9 km/h 27 % 0.0 mm 744.0 W/m2 CLR
13:01 21.7 °C 0.8 °C 1022.9 hPa SSW 18.5 km/h 18.5 km/h 25 % 0.0 mm 747.0 W/m2 CLR
13:06 21.1 °C 0.8 °C 1022.9 hPa WSW 14.8 km/h 14.8 km/h 26 % 0.0 mm 754.0 W/m2 CLR
13:11 21.1 °C 0.3 °C 1022.9 hPa South 8.0 km/h 8.0 km/h 25 % 0.0 mm 761.0 W/m2 CLR
13:16 21.7 °C 0.2 °C 1022.9 hPa South 7.4 km/h 7.4 km/h 24 % 0.0 mm 761.0 W/m2 CLR
13:21 22.2 °C 1.2 °C 1022.9 hPa West 18.5 km/h 18.5 km/h 25 % 0.0 mm 763.0 W/m2 CLR
13:26 22.2 °C 1.2 °C 1022.9 hPa SW 1.9 km/h 1.9 km/h 25 % 0.0 mm 770.0 W/m2 CLR
13:31 22.8 °C 1.7 °C 1022.6 hPa SW 18.5 km/h 18.5 km/h 25 % 0.0 mm 768.0 W/m2 CLR
13:36 22.8 °C 0.6 °C 1022.6 hPa SSW 18.5 km/h 18.5 km/h 23 % 0.0 mm 768.0 W/m2 CLR
13:41 22.8 °C 0.6 °C 1022.6 hPa SW 14.8 km/h 14.8 km/h 23 % 0.0 mm 772.0 W/m2 CLR
13:46 22.8 °C -0.1 °C 1022.6 hPa SSW 7.4 km/h 7.4 km/h 22 % 0.0 mm 772.0 W/m2 CLR
13:51 22.2 °C 0.7 °C 1022.6 hPa WSW 3.7 km/h   24 % 0.0 mm 775.0 W/m2 CLR
13:56 22.8 °C -0.1 °C 1022.6 hPa SSW 5.6 km/h 5.6 km/h 22 % 0.0 mm 773.0 W/m2 CLR
14:01 23.3 °C 0.4 °C 1022.6 hPa Calm     22 % 0.0 mm 775.0 W/m2 CLR
14:06 23.3 °C 0.4 °C 1022.2 hPa SW 7.4 km/h 7.4 km/h 22 % 0.0 mm 775.0 W/m2 CLR
14:11 23.9 °C -0.4 °C 1022.2 hPa South 9.3 km/h 9.3 km/h 20 % 0.0 mm 773.0 W/m2 CLR
14:16 23.3 °C -0.9 °C 1022.2 hPa SW 5.6 km/h 5.6 km/h 20 % 0.0 mm 773.0 W/m2 CLR
14:21 23.9 °C -1.2 °C 1022.2 hPa WSW 18.5 km/h 18.5 km/h 19 % 0.0 mm 770.0 W/m2 CLR
14:26 23.9 °C -1.9 °C 1022.2 hPa West 7.4 km/h 7.4 km/h 18 % 0.0 mm 766.0 W/m2 CLR
14:31 23.9 °C -1.9 °C 1022.2 hPa SSW 3.7 km/h 3.7 km/h 18 % 0.0 mm 761.0 W/m2 CLR
14:36 23.3 °C -3.1 °C 1021.9 hPa WSW 11.3 km/h 11.3 km/h 17 % 0.0 mm 765.0 W/m2 CLR
14:41 23.9 °C -2.7 °C 1021.9 hPa SW 3.7 km/h 3.7 km/h 17 % 0.0 mm 754.0 W/m2 CLR
14:46 23.3 °C -0.2 °C 1021.9 hPa SW 3.7 km/h 3.7 km/h 21 % 0.0 mm 752.0 W/m2 CLR
14:51 23.3 °C -2.3 °C 1021.9 hPa SW 5.6 km/h   18 % 0.0 mm 749.0 W/m2 CLR
14:56 23.3 °C -0.9 °C 1021.6 hPa WNW 11.1 km/h 11.1 km/h 20 % 0.0 mm 737.0 W/m2 CLR
15:01 23.9 °C -0.4 °C 1021.6 hPa SW 5.6 km/h 5.6 km/h 20 % 0.0 mm 729.0 W/m2 CLR
15:06 23.9 °C 0.2 °C 1021.6 hPa NNW 5.6 km/h 5.6 km/h 21 % 0.0 mm 726.0 W/m2 CLR
15:11 23.3 °C -1.6 °C 1021.6 hPa NW 5.6 km/h 5.6 km/h 19 % 0.0 mm 721.0 W/m2 CLR
15:16 23.3 °C -2.3 °C 1021.6 hPa WNW 11.3 km/h 11.3 km/h 18 % 0.0 mm 714.0 W/m2 CLR
15:21 23.9 °C -1.2 °C 1021.6 hPa NW 5.6 km/h 5.6 km/h 19 % 0.0 mm 710.0 W/m2 CLR
15:26 23.9 °C -1.2 °C 1021.2 hPa Calm     19 % 0.0 mm 705.0 W/m2 CLR
15:31 23.9 °C -1.9 °C 1021.2 hPa West 13.0 km/h 13.0 km/h 18 % 0.0 mm 693.0 W/m2 CLR
15:36 23.9 °C -1.9 °C 1021.2 hPa WSW 13.0 km/h 13.0 km/h 18 % 0.0 mm 686.0 W/m2 CLR
15:41 23.9 °C -1.2 °C 1021.2 hPa Calm     19 % 0.0 mm 679.0 W/m2 CLR
15:46 23.9 °C -3.5 °C 1021.2 hPa WNW 1.9 km/h   16 % 0.0 mm 668.0 W/m2 CLR
15:51 23.9 °C -1.9 °C 1020.9 hPa NNW 5.6 km/h 5.6 km/h 18 % 0.0 mm 659.0 W/m2 CLR
15:56 23.9 °C -1.9 °C 1020.9 hPa NW 7.4 km/h 7.4 km/h 18 % 0.0 mm 647.0 W/m2 CLR
16:01 23.9 °C -2.7 °C 1020.9 hPa WNW 11.1 km/h 11.1 km/h 17 % 0.0 mm 640.0 W/m2 CLR
16:06 23.9 °C -3.5 °C 1020.9 hPa Calm     16 % 0.0 mm 626.0 W/m2 CLR
16:11 23.9 °C -3.5 °C 1020.9 hPa NW 3.7 km/h 3.7 km/h 16 % 0.0 mm 612.0 W/m2 CLR
16:16 23.9 °C -3.5 °C 1020.9 hPa NW 5.6 km/h 5.6 km/h 16 % 0.0 mm 603.0 W/m2 CLR
16:21 24.4 °C -2.2 °C 1020.9 hPa NNW 3.7 km/h 3.7 km/h 17 % 0.0 mm 594.0 W/m2 CLR
16:26 24.4 °C -3.1 °C 1020.5 hPa West 9.3 km/h 9.3 km/h 16 % 0.0 mm 582.0 W/m2 CLR
16:31 24.4 °C -3.1 °C 1020.5 hPa NW 11.1 km/h 11.1 km/h 16 % 0.0 mm 570.0 W/m2 CLR
16:36 24.4 °C -3.1 °C 1020.5 hPa NW 9.3 km/h 9.3 km/h 16 % 0.0 mm 559.0 W/m2 CLR
16:41 24.4 °C -2.2 °C 1020.5 hPa Calm     17 % 0.0 mm 547.0 W/m2 CLR
Lo Temps de Massalio
Compliments of Weather Underground - 1 mb